Main page
METAR-TAF:

METAR-TAF

Airports :

Yakutsk Airport

Yakutsk, Russia

latitude: 62-01N, longitude: 129-43E, elevation: 103 m

Current weather observation

The report was made 26 minutes ago, at 23:00 UTC
Wind 4 kt from the North
Temperature -38°C
Humidity 66%
Pressure 1019 hPa
Visibility: 2400 m
mist

METAR: UEEE 212300Z 35002MPS 2400 BR NSC M38/M42 Q1019 R23L/490150 NOSIG RMK QFE755

Time: 08:26 (23:26 UTC)

Forecast

The report was made 3 hours and 26 minutes ago, at 20:00 UTC
Forecast valid from 21 at 21 UTC to 23 at 03 UTC
Wind 6 kt from the North
Visibility: 0300 m
at a height of 300 ft
fog
Temporary
from 21 at 21 UTC to 22 at 08 UTC
Visibility: 1000 m
mist

TAF: UEEE 212000Z 2121/2303 35003MPS 0300 FG VV003 TXM39/2121Z TNM41/2123Z TEMPO 2121/2208 1000 BR NSC

Weather observations and forecasts of more than 4000 airports (METAR and TAF reports).

The available stations are represented by yellow and red dots on the map.

Hover mouse over dot to see the name of the station.

Then click to see weather observations and forecasts.

To change the map : click on the green buttons with a black cross to zoom in, on the green button with a dash to zoom out, or on the green arrows for adjacent maps.


METAR-TAF: